sensor_id;sensor_type;location;lat;lon;timestamp;pressure;altitude;pressure_sealevel;temperature;humidity
77212;BME280;66206;0.000;0.000;2023-04-07T00:01:56;97913.00;;;23.97;23.08
77212;BME280;66206;0.000;0.000;2023-04-07T00:04:23;97910.22;;;23.72;23.28
77212;BME280;66206;0.000;0.000;2023-04-07T00:06:50;97908.43;;;23.77;23.19
77212;BME280;66206;0.000;0.000;2023-04-07T00:09:16;97907.13;;;23.93;23.09
77212;BME280;66206;0.000;0.000;2023-04-07T00:11:43;97905.03;;;23.86;23.09
77212;BME280;66206;0.000;0.000;2023-04-07T00:14:10;97905.74;;;23.99;22.92
77212;BME280;66206;0.000;0.000;2023-04-07T00:16:36;97902.71;;;23.85;23.04
77212;BME280;66206;0.000;0.000;2023-04-07T00:19:03;97904.80;;;23.91;23.07
77212;BME280;66206;0.000;0.000;2023-04-07T00:21:30;97902.94;;;23.50;23.48
77212;BME280;66206;0.000;0.000;2023-04-07T00:23:57;97901.78;;;23.59;23.38
77212;BME280;66206;0.000;0.000;2023-04-07T00:26:23;97901.31;;;23.46;23.42
77212;BME280;66206;0.000;0.000;2023-04-07T00:28:50;97898.75;;;23.31;23.50
77212;BME280;66206;0.000;0.000;2023-04-07T00:31:17;97893.81;;;23.15;23.73
77212;BME280;66206;0.000;0.000;2023-04-07T00:33:44;97892.87;;;22.96;23.82
77212;BME280;66206;0.000;0.000;2023-04-07T00:36:10;97891.80;;;23.01;23.81
77212;BME280;66206;0.000;0.000;2023-04-07T00:38:37;97891.06;;;23.02;23.81
77212;BME280;66206;0.000;0.000;2023-04-07T00:41:04;97892.45;;;22.82;23.94
77212;BME280;66206;0.000;0.000;2023-04-07T00:43:31;97894.78;;;22.73;24.02
77212;BME280;66206;0.000;0.000;2023-04-07T00:45:57;97897.52;;;22.78;24.07
77212;BME280;66206;0.000;0.000;2023-04-07T00:48:24;97898.68;;;22.61;24.11
77212;BME280;66206;0.000;0.000;2023-04-07T00:50:51;97899.89;;;22.58;24.12
77212;BME280;66206;0.000;0.000;2023-04-07T00:53:18;97903.22;;;22.49;24.26
77212;BME280;66206;0.000;0.000;2023-04-07T00:55:45;97901.23;;;22.40;24.31
77212;BME280;66206;0.000;0.000;2023-04-07T00:58:12;97901.17;;;22.22;24.50
77212;BME280;66206;0.000;0.000;2023-04-07T01:00:40;97901.21;;;22.33;24.41
77212;BME280;66206;0.000;0.000;2023-04-07T01:03:09;97899.94;;;22.34;24.39
77212;BME280;66206;0.000;0.000;2023-04-07T01:05:34;97895.33;;;22.03;24.58
77212;BME280;66206;0.000;0.000;2023-04-07T01:08:01;97894.34;;;22.11;24.52
77212;BME280;66206;0.000;0.000;2023-04-07T01:10:26;97893.57;;;21.97;24.60
77212;BME280;66206;0.000;0.000;2023-04-07T01:12:52;97886.05;;;22.36;24.32
77212;BME280;66206;0.000;0.000;2023-04-07T01:15:20;97878.88;;;22.22;24.32
77212;BME280;66206;0.000;0.000;2023-04-07T01:17:48;97879.31;;;21.97;24.50
77212;BME280;66206;0.000;0.000;2023-04-07T01:20:14;97874.55;;;22.02;24.46
77212;BME280;66206;0.000;0.000;2023-04-07T01:22:44;97867.51;;;21.97;24.55
77212;BME280;66206;0.000;0.000;2023-04-07T01:25:32;97861.90;;;22.07;24.46
77212;BME280;66206;0.000;0.000;2023-04-07T01:27:41;97863.91;;;21.92;24.50
77212;BME280;66206;0.000;0.000;2023-04-07T01:30:10;97859.42;;;22.06;24.41
77212;BME280;66206;0.000;0.000;2023-04-07T01:32:38;97858.56;;;21.96;24.53
77212;BME280;66206;0.000;0.000;2023-04-07T01:35:06;97855.69;;;21.81;24.54
77212;BME280;66206;0.000;0.000;2023-04-07T01:37:35;97855.29;;;21.84;24.58
77212;BME280;66206;0.000;0.000;2023-04-07T01:40:03;97853.16;;;21.96;24.47
77212;BME280;66206;0.000;0.000;2023-04-07T01:42:30;97851.43;;;21.96;24.49
77212;BME280;66206;0.000;0.000;2023-04-07T01:44:58;97849.66;;;21.89;24.49
77212;BME280;66206;0.000;0.000;2023-04-07T01:47:26;97848.56;;;21.81;24.48
77212;BME280;66206;0.000;0.000;2023-04-07T01:49:53;97845.63;;;21.93;24.42
77212;BME280;66206;0.000;0.000;2023-04-07T01:52:20;97841.79;;;21.75;24.57
77212;BME280;66206;0.000;0.000;2023-04-07T01:54:47;97838.26;;;21.78;24.50
77212;BME280;66206;0.000;0.000;2023-04-07T01:57:14;97839.91;;;21.88;24.46
77212;BME280;66206;0.000;0.000;2023-04-07T01:59:41;97836.55;;;21.75;24.53
77212;BME280;66206;0.000;0.000;2023-04-07T02:02:08;97837.67;;;21.74;24.51
77212;BME280;66206;0.000;0.000;2023-04-07T02:04:36;97835.89;;;21.79;24.48
77212;BME280;66206;0.000;0.000;2023-04-07T02:07:05;97835.45;;;21.75;24.55
77212;BME280;66206;0.000;0.000;2023-04-07T02:09:33;97836.48;;;21.73;24.52
77212;BME280;66206;0.000;0.000;2023-04-07T02:11:59;97836.15;;;21.74;24.54
77212;BME280;66206;0.000;0.000;2023-04-07T02:14:27;97832.27;;;21.80;24.45
77212;BME280;66206;0.000;0.000;2023-04-07T02:16:55;97828.45;;;21.66;24.51
77212;BME280;66206;0.000;0.000;2023-04-07T02:19:22;97828.11;;;21.74;24.49
77212;BME280;66206;0.000;0.000;2023-04-07T02:21:49;97829.47;;;21.58;24.60
77212;BME280;66206;0.000;0.000;2023-04-07T02:24:18;97829.46;;;21.60;24.62
77212;BME280;66206;0.000;0.000;2023-04-07T02:26:45;97829.98;;;21.58;24.60
77212;BME280;66206;0.000;0.000;2023-04-07T02:29:12;97827.36;;;21.62;24.55
77212;BME280;66206;0.000;0.000;2023-04-07T02:31:39;97825.09;;;21.54;24.63
77212;BME280;66206;0.000;0.000;2023-04-07T02:34:05;97819.46;;;21.61;24.54
77212;BME280;66206;0.000;0.000;2023-04-07T02:36:32;97816.21;;;21.71;24.42
77212;BME280;66206;0.000;0.000;2023-04-07T02:38:59;97817.20;;;21.69;24.59
77212;BME280;66206;0.000;0.000;2023-04-07T02:41:26;97818.46;;;21.45;24.54
77212;BME280;66206;0.000;0.000;2023-04-07T02:43:52;97816.62;;;21.45;24.61
77212;BME280;66206;0.000;0.000;2023-04-07T02:46:19;97818.58;;;21.61;24.41
77212;BME280;66206;0.000;0.000;2023-04-07T02:48:46;97814.58;;;21.67;24.52
77212;BME280;66206;0.000;0.000;2023-04-07T02:51:13;97815.59;;;21.47;24.57
77212;BME280;66206;0.000;0.000;2023-04-07T02:53:39;97818.27;;;21.66;24.52
77212;BME280;66206;0.000;0.000;2023-04-07T02:56:06;97819.99;;;21.60;24.60
77212;BME280;66206;0.000;0.000;2023-04-07T02:58:33;97819.68;;;21.29;24.64
77212;BME280;66206;0.000;0.000;2023-04-07T03:01:00;97819.67;;;21.30;24.64
77212;BME280;66206;0.000;0.000;2023-04-07T03:03:26;97821.86;;;21.43;24.50
77212;BME280;66206;0.000;0.000;2023-04-07T03:05:53;97823.19;;;21.61;24.50
77212;BME280;66206;0.000;0.000;2023-04-07T03:08:20;97825.64;;;21.54;24.48
77212;BME280;66206;0.000;0.000;2023-04-07T03:10:46;97825.21;;;21.50;24.49
77212;BME280;66206;0.000;0.000;2023-04-07T03:13:13;97828.29;;;21.52;24.46
77212;BME280;66206;0.000;0.000;2023-04-07T03:15:40;97829.61;;;21.79;24.23
77212;BME280;66206;0.000;0.000;2023-04-07T03:18:07;97824.30;;;21.74;24.21
77212;BME280;66206;0.000;0.000;2023-04-07T03:20:34;97823.43;;;21.76;24.28
77212;BME280;66206;0.000;0.000;2023-04-07T03:23:00;97819.93;;;21.77;24.22
77212;BME280;66206;0.000;0.000;2023-04-07T03:25:27;97816.66;;;21.80;24.08
77212;BME280;66206;0.000;0.000;2023-04-07T03:27:54;97812.39;;;21.69;24.18
77212;BME280;66206;0.000;0.000;2023-04-07T03:30:21;97814.60;;;21.71;24.13
77212;BME280;66206;0.000;0.000;2023-04-07T03:32:47;97814.67;;;21.84;24.07
77212;BME280;66206;0.000;0.000;2023-04-07T03:35:14;97816.27;;;21.83;24.02
77212;BME280;66206;0.000;0.000;2023-04-07T03:37:41;97811.63;;;21.86;23.97
77212;BME280;66206;0.000;0.000;2023-04-07T03:40:08;97810.54;;;21.79;23.97
77212;BME280;66206;0.000;0.000;2023-04-07T03:42:35;97813.60;;;21.85;23.98
77212;BME280;66206;0.000;0.000;2023-04-07T03:45:01;97814.28;;;21.94;23.97
77212;BME280;66206;0.000;0.000;2023-04-07T03:47:28;97810.60;;;21.91;23.95
77212;BME280;66206;0.000;0.000;2023-04-07T03:49:55;97808.59;;;21.85;23.98
77212;BME280;66206;0.000;0.000;2023-04-07T03:52:22;97808.26;;;21.89;23.99
77212;BME280;66206;0.000;0.000;2023-04-07T03:54:48;97808.70;;;21.92;23.99
77212;BME280;66206;0.000;0.000;2023-04-07T03:57:15;97809.23;;;21.92;23.97
77212;BME280;66206;0.000;0.000;2023-04-07T03:59:42;97807.83;;;21.91;23.99
77212;BME280;66206;0.000;0.000;2023-04-07T04:02:08;97808.26;;;21.87;24.04
77212;BME280;66206;0.000;0.000;2023-04-07T04:04:36;97809.42;;;21.77;24.04
77212;BME280;66206;0.000;0.000;2023-04-07T04:07:03;97807.10;;;21.81;24.13
77212;BME280;66206;0.000;0.000;2023-04-07T04:09:29;97807.69;;;21.84;24.06
77212;BME280;66206;0.000;0.000;2023-04-07T04:11:56;97808.08;;;21.85;24.03
77212;BME280;66206;0.000;0.000;2023-04-07T04:14:23;97803.87;;;21.89;24.02
77212;BME280;66206;0.000;0.000;2023-04-07T04:16:49;97804.35;;;21.85;24.05
77212;BME280;66206;0.000;0.000;2023-04-07T04:19:16;97805.63;;;21.85;24.00
77212;BME280;66206;0.000;0.000;2023-04-07T04:21:43;97801.62;;;21.82;24.07
77212;BME280;66206;0.000;0.000;2023-04-07T04:24:10;97807.45;;;21.74;24.09
77212;BME280;66206;0.000;0.000;2023-04-07T04:26:36;97802.96;;;21.92;24.02
77212;BME280;66206;0.000;0.000;2023-04-07T04:29:03;97805.21;;;21.85;24.07
77212;BME280;66206;0.000;0.000;2023-04-07T04:31:30;97804.88;;;21.83;24.01
77212;BME280;66206;0.000;0.000;2023-04-07T04:33:57;97800.66;;;21.78;24.07
77212;BME280;66206;0.000;0.000;2023-04-07T04:36:23;97797.05;;;21.78;24.14
77212;BME280;66206;0.000;0.000;2023-04-07T04:38:50;97795.63;;;21.90;24.14
77212;BME280;66206;0.000;0.000;2023-04-07T04:41:17;97795.95;;;21.84;24.14
77212;BME280;66206;0.000;0.000;2023-04-07T04:43:44;97797.25;;;21.87;24.08
77212;BME280;66206;0.000;0.000;2023-04-07T04:46:10;97800.18;;;21.63;24.14
77212;BME280;66206;0.000;0.000;2023-04-07T04:48:37;97800.28;;;21.83;24.13
77212;BME280;66206;0.000;0.000;2023-04-07T04:51:04;97800.30;;;21.66;24.10
77212;BME280;66206;0.000;0.000;2023-04-07T04:53:31;97803.46;;;21.64;24.15
77212;BME280;66206;0.000;0.000;2023-04-07T04:55:57;97806.39;;;21.71;24.11
77212;BME280;66206;0.000;0.000;2023-04-07T04:58:24;97810.04;;;21.76;24.10
77212;BME280;66206;0.000;0.000;2023-04-07T05:00:52;97810.36;;;21.83;24.01
77212;BME280;66206;0.000;0.000;2023-04-07T05:03:19;97811.22;;;21.72;24.09
77212;BME280;66206;0.000;0.000;2023-04-07T05:05:46;97812.68;;;21.59;24.19
77212;BME280;66206;0.000;0.000;2023-04-07T05:08:12;97810.17;;;21.73;24.06
77212;BME280;66206;0.000;0.000;2023-04-07T05:10:39;97808.90;;;21.78;23.99
77212;BME280;66206;0.000;0.000;2023-04-07T05:13:06;97810.53;;;21.70;24.04
77212;BME280;66206;0.000;0.000;2023-04-07T05:15:33;97812.68;;;21.84;24.08
77212;BME280;66206;0.000;0.000;2023-04-07T05:17:59;97809.90;;;21.79;24.00
77212;BME280;66206;0.000;0.000;2023-04-07T05:20:26;97807.48;;;21.94;23.94
77212;BME280;66206;0.000;0.000;2023-04-07T05:22:53;97810.87;;;21.70;23.98
77212;BME280;66206;0.000;0.000;2023-04-07T05:25:20;97809.75;;;21.60;24.12
77212;BME280;66206;0.000;0.000;2023-04-07T05:27:46;97810.24;;;21.74;24.01
77212;BME280;66206;0.000;0.000;2023-04-07T05:30:13;97806.57;;;21.74;24.00
77212;BME280;66206;0.000;0.000;2023-04-07T05:32:40;97810.24;;;21.76;24.03
77212;BME280;66206;0.000;0.000;2023-04-07T05:35:07;97806.45;;;21.68;24.03
77212;BME280;66206;0.000;0.000;2023-04-07T05:37:34;97802.86;;;21.79;23.97
77212;BME280;66206;0.000;0.000;2023-04-07T05:40:01;97801.08;;;21.77;23.90
77212;BME280;66206;0.000;0.000;2023-04-07T05:42:28;97800.67;;;21.75;24.02
77212;BME280;66206;0.000;0.000;2023-04-07T05:44:54;97796.39;;;21.58;23.98
77212;BME280;66206;0.000;0.000;2023-04-07T05:47:21;97799.71;;;21.65;24.00
77212;BME280;66206;0.000;0.000;2023-04-07T05:49:48;97799.01;;;21.73;24.01
77212;BME280;66206;0.000;0.000;2023-04-07T05:52:15;97799.50;;;21.74;23.96
77212;BME280;66206;0.000;0.000;2023-04-07T05:54:41;97803.43;;;21.72;24.02
77212;BME280;66206;0.000;0.000;2023-04-07T05:57:08;97800.81;;;21.68;24.02
77212;BME280;66206;0.000;0.000;2023-04-07T05:59:35;97803.79;;;21.78;24.02
77212;BME280;66206;0.000;0.000;2023-04-07T06:02:02;97806.22;;;21.64;23.95
77212;BME280;66206;0.000;0.000;2023-04-07T06:04:29;97808.29;;;21.55;24.07
77212;BME280;66206;0.000;0.000;2023-04-07T06:06:55;97808.10;;;21.78;23.99
77212;BME280;66206;0.000;0.000;2023-04-07T06:09:22;97809.07;;;21.66;24.05
77212;BME280;66206;0.000;0.000;2023-04-07T06:11:49;97808.04;;;21.55;24.07
77212;BME280;66206;0.000;0.000;2023-04-07T06:14:16;97807.34;;;21.59;24.00
77212;BME280;66206;0.000;0.000;2023-04-07T06:16:43;97807.13;;;21.72;24.01
77212;BME280;66206;0.000;0.000;2023-04-07T06:19:10;97809.28;;;21.69;23.95
77212;BME280;66206;0.000;0.000;2023-04-07T06:21:36;97803.74;;;21.76;23.93
77212;BME280;66206;0.000;0.000;2023-04-07T06:24:03;97800.28;;;21.81;23.94
77212;BME280;66206;0.000;0.000;2023-04-07T06:26:30;97807.44;;;21.72;24.04
77212;BME280;66206;0.000;0.000;2023-04-07T06:28:57;97807.60;;;21.84;23.92
77212;BME280;66206;0.000;0.000;2023-04-07T06:31:24;97809.82;;;21.62;23.99
77212;BME280;66206;0.000;0.000;2023-04-07T06:33:50;97810.61;;;21.72;24.01
77212;BME280;66206;0.000;0.000;2023-04-07T06:36:17;97808.73;;;21.76;23.94
77212;BME280;66206;0.000;0.000;2023-04-07T06:38:44;97808.70;;;21.67;23.93
77212;BME280;66206;0.000;0.000;2023-04-07T06:41:11;97812.72;;;21.62;23.98
77212;BME280;66206;0.000;0.000;2023-04-07T06:43:37;97811.01;;;21.83;23.88
77212;BME280;66206;0.000;0.000;2023-04-07T06:46:04;97812.12;;;21.72;24.02
77212;BME280;66206;0.000;0.000;2023-04-07T06:48:31;97808.42;;;21.74;23.93
77212;BME280;66206;0.000;0.000;2023-04-07T06:50:58;97807.16;;;21.60;24.01
77212;BME280;66206;0.000;0.000;2023-04-07T06:53:24;97807.49;;;21.69;23.97
77212;BME280;66206;0.000;0.000;2023-04-07T06:56:01;97808.58;;;21.60;24.05
77212;BME280;66206;0.000;0.000;2023-04-07T06:58:17;97802.90;;;21.76;23.91
77212;BME280;66206;0.000;0.000;2023-04-07T07:00:44;97801.02;;;21.71;24.00
77212;BME280;66206;0.000;0.000;2023-04-07T07:03:11;97795.23;;;21.75;24.00
77212;BME280;66206;0.000;0.000;2023-04-07T07:05:37;97792.35;;;21.81;23.94
77212;BME280;66206;0.000;0.000;2023-04-07T07:08:04;97792.56;;;21.70;24.03
77212;BME280;66206;0.000;0.000;2023-04-07T07:10:31;97792.38;;;21.76;23.96
77212;BME280;66206;0.000;0.000;2023-04-07T07:12:58;97789.42;;;21.77;23.94
77212;BME280;66206;0.000;0.000;2023-04-07T07:15:24;97788.99;;;21.83;23.88
77212;BME280;66206;0.000;0.000;2023-04-07T07:17:51;97787.04;;;21.81;24.05
77212;BME280;66206;0.000;0.000;2023-04-07T07:20:18;97788.83;;;21.70;24.02
77212;BME280;66206;0.000;0.000;2023-04-07T07:22:45;97792.42;;;21.86;23.86
77212;BME280;66206;0.000;0.000;2023-04-07T07:25:12;97796.26;;;21.81;23.92
77212;BME280;66206;0.000;0.000;2023-04-07T07:27:38;97798.67;;;21.69;23.95
77212;BME280;66206;0.000;0.000;2023-04-07T07:30:05;97798.97;;;21.74;23.92
77212;BME280;66206;0.000;0.000;2023-04-07T07:32:32;97802.94;;;21.81;23.93
77212;BME280;66206;0.000;0.000;2023-04-07T07:34:59;97807.41;;;21.76;23.95
77212;BME280;66206;0.000;0.000;2023-04-07T07:37:26;97807.44;;;21.75;23.95
77212;BME280;66206;0.000;0.000;2023-04-07T07:39:53;97804.49;;;21.78;23.95
77212;BME280;66206;0.000;0.000;2023-04-07T07:42:19;97808.67;;;21.76;23.95
77212;BME280;66206;0.000;0.000;2023-04-07T07:44:46;97805.79;;;21.83;23.95
77212;BME280;66206;0.000;0.000;2023-04-07T07:47:13;97805.22;;;21.71;23.97
77212;BME280;66206;0.000;0.000;2023-04-07T07:49:40;97805.33;;;21.83;23.95
77212;BME280;66206;0.000;0.000;2023-04-07T07:52:06;97802.20;;;21.82;23.90
77212;BME280;66206;0.000;0.000;2023-04-07T07:54:33;97802.00;;;21.91;23.87
77212;BME280;66206;0.000;0.000;2023-04-07T07:57:00;97801.84;;;21.80;23.98
77212;BME280;66206;0.000;0.000;2023-04-07T07:59:27;97801.03;;;21.76;24.01
77212;BME280;66206;0.000;0.000;2023-04-07T08:01:53;97795.51;;;21.84;23.92
77212;BME280;66206;0.000;0.000;2023-04-07T08:04:20;97794.07;;;21.83;23.99
77212;BME280;66206;0.000;0.000;2023-04-07T08:06:47;97791.45;;;21.69;24.04
77212;BME280;66206;0.000;0.000;2023-04-07T08:09:14;97788.97;;;21.83;23.96
77212;BME280;66206;0.000;0.000;2023-04-07T08:11:40;97788.15;;;21.80;24.03
77212;BME280;66206;0.000;0.000;2023-04-07T08:14:07;97788.88;;;21.76;24.06
77212;BME280;66206;0.000;0.000;2023-04-07T08:16:34;97788.31;;;21.90;24.07
77212;BME280;66206;0.000;0.000;2023-04-07T08:19:01;97791.34;;;21.79;24.08
77212;BME280;66206;0.000;0.000;2023-04-07T08:21:28;97788.47;;;21.92;23.93
77212;BME280;66206;0.000;0.000;2023-04-07T08:23:54;97786.79;;;21.93;24.02
77212;BME280;66206;0.000;0.000;2023-04-07T08:26:21;97788.87;;;21.76;24.02
77212;BME280;66206;0.000;0.000;2023-04-07T08:28:48;97787.98;;;21.88;24.07
77212;BME280;66206;0.000;0.000;2023-04-07T08:31:15;97789.73;;;21.87;24.05
77212;BME280;66206;0.000;0.000;2023-04-07T08:33:42;97786.49;;;21.85;24.07
77212;BME280;66206;0.000;0.000;2023-04-07T08:36:09;97786.20;;;21.79;24.10
77212;BME280;66206;0.000;0.000;2023-04-07T08:38:36;97785.99;;;21.81;24.06
77212;BME280;66206;0.000;0.000;2023-04-07T08:41:03;97786.36;;;21.87;24.01
77212;BME280;66206;0.000;0.000;2023-04-07T08:43:28;97787.65;;;21.76;24.08
77212;BME280;66206;0.000;0.000;2023-04-07T08:45:55;97784.25;;;21.81;24.10
77212;BME280;66206;0.000;0.000;2023-04-07T08:48:23;97783.65;;;21.91;23.98
77212;BME280;66206;0.000;0.000;2023-04-07T08:50:50;97781.83;;;22.03;23.92
77212;BME280;66206;0.000;0.000;2023-04-07T08:53:17;97780.78;;;21.88;24.02
77212;BME280;66206;0.000;0.000;2023-04-07T08:55:44;97781.76;;;21.74;24.16
77212;BME280;66206;0.000;0.000;2023-04-07T08:58:11;97781.13;;;21.77;24.13
77212;BME280;66206;0.000;0.000;2023-04-07T09:00:39;97781.43;;;21.83;24.09
77212;BME280;66206;0.000;0.000;2023-04-07T09:03:06;97784.40;;;21.82;24.02
77212;BME280;66206;0.000;0.000;2023-04-07T09:05:33;97784.36;;;21.98;23.98
77212;BME280;66206;0.000;0.000;2023-04-07T09:08:00;97783.18;;;21.86;24.19
77212;BME280;66206;0.000;0.000;2023-04-07T09:10:27;97781.94;;;21.81;25.40
77212;BME280;66206;0.000;0.000;2023-04-07T09:12:54;97785.02;;;21.53;25.96
77212;BME280;66206;0.000;0.000;2023-04-07T09:15:21;97781.31;;;21.69;26.17
77212;BME280;66206;0.000;0.000;2023-04-07T09:17:48;97781.52;;;21.73;26.24
77212;BME280;66206;0.000;0.000;2023-04-07T09:20:15;97781.85;;;21.66;26.02
77212;BME280;66206;0.000;0.000;2023-04-07T09:22:42;97780.26;;;21.75;26.09
77212;BME280;66206;0.000;0.000;2023-04-07T09:25:11;97778.51;;;21.64;26.19
77212;BME280;66206;0.000;0.000;2023-04-07T09:27:38;97778.80;;;21.75;26.11
77212;BME280;66206;0.000;0.000;2023-04-07T09:30:13;97779.76;;;21.63;26.20
77212;BME280;66206;0.000;0.000;2023-04-07T09:32:35;97781.20;;;21.71;26.14
77212;BME280;66206;0.000;0.000;2023-04-07T09:35:02;97778.83;;;21.70;26.16
77212;BME280;66206;0.000;0.000;2023-04-07T09:37:29;97778.71;;;21.70;26.01
77212;BME280;66206;0.000;0.000;2023-04-07T09:39:55;97776.33;;;21.69;26.17
77212;BME280;66206;0.000;0.000;2023-04-07T09:42:22;97774.54;;;21.78;26.10
77212;BME280;66206;0.000;0.000;2023-04-07T09:44:49;97772.48;;;21.67;26.36
77212;BME280;66206;0.000;0.000;2023-04-07T09:47:16;97768.56;;;21.66;26.20
77212;BME280;66206;0.000;0.000;2023-04-07T09:49:50;97764.03;;;21.62;26.26
77212;BME280;66206;0.000;0.000;2023-04-07T09:52:12;97760.39;;;21.91;26.18
77212;BME280;66206;0.000;0.000;2023-04-07T09:54:40;97759.83;;;21.88;26.48
77212;BME280;66206;0.000;0.000;2023-04-07T09:57:07;97760.04;;;21.54;26.68
77212;BME280;66206;0.000;0.000;2023-04-07T09:59:35;97762.65;;;20.61;27.66
77212;BME280;66206;0.000;0.000;2023-04-07T10:02:02;97764.45;;;20.78;27.86
77212;BME280;66206;0.000;0.000;2023-04-07T10:04:29;97759.97;;;20.77;27.79
77212;BME280;66206;0.000;0.000;2023-04-07T10:06:56;97762.56;;;21.43;27.16
77212;BME280;66206;0.000;0.000;2023-04-07T10:09:24;97759.35;;;22.03;26.68
77212;BME280;66206;0.000;0.000;2023-04-07T10:11:51;97758.61;;;22.47;26.15
77212;BME280;66206;0.000;0.000;2023-04-07T10:14:19;97756.82;;;22.58;25.98
77212;BME280;66206;0.000;0.000;2023-04-07T10:16:46;97759.50;;;22.62;25.90
77212;BME280;66206;0.000;0.000;2023-04-07T10:19:13;97760.73;;;23.07;25.61
77212;BME280;66206;0.000;0.000;2023-04-07T10:21:41;97758.67;;;22.99;25.53
77212;BME280;66206;0.000;0.000;2023-04-07T10:24:11;97762.28;;;23.16;25.52
77212;BME280;66206;0.000;0.000;2023-04-07T10:26:34;97755.85;;;22.87;25.76
77212;BME280;66206;0.000;0.000;2023-04-07T10:29:04;97756.91;;;23.01;25.57
77212;BME280;66206;0.000;0.000;2023-04-07T10:31:32;97756.02;;;22.97;25.60
77212;BME280;66206;0.000;0.000;2023-04-07T10:33:59;97753.44;;;23.30;25.31
77212;BME280;66206;0.000;0.000;2023-04-07T10:36:25;97752.53;;;23.19;25.47
77212;BME280;66206;0.000;0.000;2023-04-07T10:39:24;97752.45;;;23.28;25.27
77212;BME280;66206;0.000;0.000;2023-04-07T10:41:36;97754.04;;;23.04;25.42
77212;BME280;66206;0.000;0.000;2023-04-07T10:43:47;97753.83;;;23.30;25.29
77212;BME280;66206;0.000;0.000;2023-04-07T10:46:14;97758.12;;;23.55;24.86
77212;BME280;66206;0.000;0.000;2023-04-07T10:48:40;97756.39;;;23.61;24.88
77212;BME280;66206;0.000;0.000;2023-04-07T10:51:15;97754.30;;;23.50;24.82
77212;BME280;66206;0.000;0.000;2023-04-07T10:53:37;97757.01;;;23.46;24.84
77212;BME280;66206;0.000;0.000;2023-04-07T10:56:04;97754.26;;;23.34;24.91
77212;BME280;66206;0.000;0.000;2023-04-07T10:58:31;97750.65;;;23.45;25.09
77212;BME280;66206;0.000;0.000;2023-04-07T11:01:16;97752.00;;;23.63;24.83
77212;BME280;66206;0.000;0.000;2023-04-07T11:03:28;97750.92;;;23.92;24.67
77212;BME280;66206;0.000;0.000;2023-04-07T11:06:01;97751.92;;;23.98;24.59
77212;BME280;66206;0.000;0.000;2023-04-07T11:08:31;97751.67;;;23.98;24.59
77212;BME280;66206;0.000;0.000;2023-04-07T11:10:52;97751.67;;;23.92;24.69
77212;BME280;66206;0.000;0.000;2023-04-07T11:13:19;97747.88;;;23.98;24.59
77212;BME280;66206;0.000;0.000;2023-04-07T11:15:46;97741.90;;;24.25;24.37
77212;BME280;66206;0.000;0.000;2023-04-07T11:18:16;97739.59;;;24.14;24.46
77212;BME280;66206;0.000;0.000;2023-04-07T11:20:45;97735.68;;;24.22;24.38
77212;BME280;66206;0.000;0.000;2023-04-07T11:23:12;97732.56;;;24.11;24.57
77212;BME280;66206;0.000;0.000;2023-04-07T11:25:41;97732.86;;;24.23;24.42
77212;BME280;66206;0.000;0.000;2023-04-07T11:28:08;97732.33;;;24.47;24.28
77212;BME280;66206;0.000;0.000;2023-04-07T11:30:35;97729.87;;;24.37;24.23
77212;BME280;66206;0.000;0.000;2023-04-07T11:33:02;97727.94;;;24.37;24.34
77212;BME280;66206;0.000;0.000;2023-04-07T11:35:29;97726.23;;;23.89;24.31
77212;BME280;66206;0.000;0.000;2023-04-07T11:37:57;97736.48;;;23.59;24.57
77212;BME280;66206;0.000;0.000;2023-04-07T11:40:31;97736.76;;;23.65;24.68
77212;BME280;66206;0.000;0.000;2023-04-07T11:42:53;97735.88;;;23.67;24.61
77212;BME280;66206;0.000;0.000;2023-04-07T11:45:20;97733.72;;;23.73;24.80
77212;BME280;66206;0.000;0.000;2023-04-07T11:47:46;97730.05;;;23.81;24.70
77212;BME280;66206;0.000;0.000;2023-04-07T11:50:13;97726.89;;;23.78;24.66
77212;BME280;66206;0.000;0.000;2023-04-07T11:52:40;97728.13;;;23.71;24.90
77212;BME280;66206;0.000;0.000;2023-04-07T11:55:15;97722.72;;;23.81;24.79
77212;BME280;66206;0.000;0.000;2023-04-07T11:57:37;97722.56;;;23.90;24.75
77212;BME280;66206;0.000;0.000;2023-04-07T12:00:04;97723.77;;;23.99;24.57
77212;BME280;66206;0.000;0.000;2023-04-07T12:02:31;97719.35;;;24.03;24.45
77212;BME280;66206;0.000;0.000;2023-04-07T12:04:58;97714.09;;;23.98;24.61
77212;BME280;66206;0.000;0.000;2023-04-07T12:07:25;97713.61;;;24.02;24.62
77212;BME280;66206;0.000;0.000;2023-04-07T12:09:52;97718.82;;;23.76;24.79
77212;BME280;66206;0.000;0.000;2023-04-07T12:12:24;97718.44;;;23.41;25.02
77212;BME280;66206;0.000;0.000;2023-04-07T12:14:46;97717.74;;;23.70;25.07
77212;BME280;66206;0.000;0.000;2023-04-07T12:17:18;97712.82;;;23.90;24.74
77212;BME280;66206;0.000;0.000;2023-04-07T12:19:40;97713.16;;;24.02;24.60
77212;BME280;66206;0.000;0.000;2023-04-07T12:22:07;97709.97;;;24.00;24.72
77212;BME280;66206;0.000;0.000;2023-04-07T12:24:33;97717.17;;;22.84;25.93
77212;BME280;66206;0.000;0.000;2023-04-07T12:27:00;97717.15;;;22.88;25.83
77212;BME280;66206;0.000;0.000;2023-04-07T12:29:27;97718.04;;;23.01;25.81
77212;BME280;66206;0.000;0.000;2023-04-07T12:31:54;97710.37;;;22.58;26.15
77212;BME280;66206;0.000;0.000;2023-04-07T12:34:21;97715.90;;;22.61;26.10
77212;BME280;66206;0.000;0.000;2023-04-07T12:36:48;97714.35;;;22.56;26.22
77212;BME280;66206;0.000;0.000;2023-04-07T12:39:15;97718.73;;;22.90;25.88
77212;BME280;66206;0.000;0.000;2023-04-07T12:41:41;97715.33;;;22.15;26.41
77212;BME280;66206;0.000;0.000;2023-04-07T12:44:08;97718.31;;;22.80;25.95
77212;BME280;66206;0.000;0.000;2023-04-07T12:46:35;97721.96;;;23.01;25.68
77212;BME280;66206;0.000;0.000;2023-04-07T12:49:02;97721.16;;;22.88;24.22
77212;BME280;66206;0.000;0.000;2023-04-07T12:51:29;97720.58;;;22.80;24.51
77212;BME280;66206;0.000;0.000;2023-04-07T12:53:56;97716.86;;;22.54;22.86
77212;BME280;66206;0.000;0.000;2023-04-07T12:56:23;97713.04;;;22.44;21.67
77212;BME280;66206;0.000;0.000;2023-04-07T12:58:49;97708.10;;;22.09;22.62
77212;BME280;66206;0.000;0.000;2023-04-07T13:01:16;97708.19;;;22.03;22.87
77212;BME280;66206;0.000;0.000;2023-04-07T13:03:43;97711.95;;;22.12;21.63
77212;BME280;66206;0.000;0.000;2023-04-07T13:06:09;97713.38;;;22.05;20.79
77212;BME280;66206;0.000;0.000;2023-04-07T13:08:37;97714.60;;;21.88;21.12